createdAt,value
2022-12-18T00:00:18.891Z,85.91
2022-12-18T00:01:18.917Z,85.71
2022-12-18T00:02:18.881Z,86.09
2022-12-18T00:03:18.938Z,85.88
2022-12-18T00:04:18.893Z,85.94
2022-12-18T00:05:18.849Z,85.41
2022-12-18T00:06:18.853Z,84.57
2022-12-18T00:07:18.850Z,84.89
2022-12-18T00:08:18.831Z,84.04
2022-12-18T00:09:18.837Z,84.50
2022-12-18T00:10:18.809Z,84.75
2022-12-18T00:11:18.819Z,84.96
2022-12-18T00:13:19.813Z,85.56
2022-12-18T00:14:18.788Z,86.09
2022-12-18T00:15:18.804Z,86.30
2022-12-18T00:16:18.812Z,85.88
2022-12-18T00:17:18.780Z,85.66
2022-12-18T00:18:20.730Z,85.98
2022-12-18T00:19:19.889Z,86.19
2022-12-18T00:20:18.748Z,86.16
2022-12-18T00:21:18.735Z,85.56
2022-12-18T00:22:18.745Z,84.92
2022-12-18T00:23:18.744Z,85.94
2022-12-18T00:24:18.731Z,85.63
2022-12-18T00:25:18.718Z,85.21
2022-12-18T00:26:18.708Z,84.71
2022-12-18T00:27:18.708Z,85.71
2022-12-18T00:28:18.722Z,85.74
2022-12-18T00:29:18.708Z,86.27
2022-12-18T00:30:18.704Z,86.23
2022-12-18T00:31:18.763Z,86.55
2022-12-18T00:32:18.676Z,86.87
2022-12-18T00:33:18.676Z,86.23
2022-12-18T00:34:18.706Z,86.34
2022-12-18T00:35:18.659Z,86.34
2022-12-18T00:36:18.655Z,86.30
2022-12-18T00:37:20.360Z,86.19
2022-12-18T00:38:19.644Z,85.91
2022-12-18T00:39:18.648Z,86.44
2022-12-18T00:40:18.640Z,86.41
2022-12-18T00:41:18.617Z,86.41
2022-12-18T00:42:18.620Z,85.98
2022-12-18T00:43:18.608Z,85.56
2022-12-18T00:44:18.605Z,85.98
2022-12-18T00:45:18.604Z,85.88
2022-12-18T00:46:18.681Z,85.88
2022-12-18T00:47:18.574Z,86.09
2022-12-18T00:48:18.570Z,85.69
2022-12-18T00:49:18.584Z,85.69
2022-12-18T00:50:18.558Z,85.91
2022-12-18T00:51:18.553Z,85.48
2022-12-18T00:52:18.554Z,84.81
2022-12-18T00:53:18.538Z,84.28
2022-12-18T00:54:18.553Z,83.65
2022-12-18T00:55:18.533Z,83.23
2022-12-18T00:56:18.524Z,84.64
2022-12-18T00:57:18.511Z,85.71
2022-12-18T00:58:18.517Z,86.38
2022-12-18T00:59:18.534Z,86.44
2022-12-18T01:00:18.497Z,86.51
2022-12-18T01:01:18.599Z,85.66
2022-12-18T01:02:18.649Z,85.66
2022-12-18T01:03:18.584Z,85.56
2022-12-18T01:04:18.482Z,84.82
2022-12-18T01:05:18.466Z,84.71
2022-12-18T01:06:18.458Z,84.19
2022-12-18T01:07:18.461Z,84.44
2022-12-18T01:08:18.444Z,84.22
2022-12-18T01:09:18.434Z,84.92
2022-12-18T01:10:18.436Z,84.71
2022-12-18T01:11:18.437Z,84.57
2022-12-18T01:12:18.408Z,84.36
2022-12-18T01:13:18.417Z,84.22
2022-12-18T01:14:18.396Z,82.98
2022-12-18T01:15:18.408Z,83.12
2022-12-18T01:16:18.457Z,83.02
2022-12-18T01:17:18.382Z,83.27
2022-12-18T01:18:18.371Z,83.76
2022-12-18T01:19:18.382Z,83.69
2022-12-18T01:20:18.366Z,83.80
2022-12-18T01:21:18.369Z,83.69
2022-12-18T01:22:18.353Z,84.22
2022-12-18T01:23:18.344Z,84.01
2022-12-18T01:24:18.335Z,84.29
2022-12-18T01:25:18.356Z,83.87
2022-12-18T01:26:18.312Z,83.02
2022-12-18T01:27:18.322Z,82.95
2022-12-18T01:28:18.327Z,82.67
2022-12-18T01:29:18.300Z,82.99
2022-12-18T01:30:18.315Z,83.98
2022-12-18T01:31:18.337Z,84.12
2022-12-18T01:32:18.292Z,84.19
2022-12-18T01:33:18.268Z,83.23
2022-12-18T01:34:18.273Z,82.70
2022-12-18T01:35:18.260Z,82.64
2022-12-18T01:36:18.254Z,82.35
2022-12-18T01:37:18.254Z,82.78
2022-12-18T01:38:18.261Z,82.25
2022-12-18T01:39:18.233Z,82.78
2022-12-18T01:40:19.230Z,83.17
2022-12-18T01:41:18.212Z,82.64
2022-12-18T01:42:18.210Z,82.57
2022-12-18T01:43:18.229Z,82.49
2022-12-18T01:44:18.205Z,82.28
2022-12-18T01:45:18.193Z,81.85
2022-12-18T01:46:18.241Z,81.54
2022-12-18T01:47:18.189Z,81.01
2022-12-18T01:48:18.197Z,81.33
2022-12-18T01:49:18.176Z,81.54
2022-12-18T01:50:18.161Z,81.65
2022-12-18T01:51:18.156Z,81.29
2022-12-18T01:52:18.157Z,80.91
2022-12-18T01:53:18.141Z,81.19
2022-12-18T01:54:18.159Z,81.47
2022-12-18T01:55:18.159Z,81.68
2022-12-18T01:56:18.118Z,81.26
2022-12-18T01:57:18.114Z,81.30
2022-12-18T01:58:18.124Z,81.82
2022-12-18T01:59:18.116Z,81.82
2022-12-18T02:00:18.087Z,82.04
2022-12-18T02:01:18.216Z,82.60
2022-12-18T02:02:18.198Z,82.75
2022-12-18T02:03:18.120Z,83.17
2022-12-18T02:04:18.075Z,84.23
2022-12-18T02:05:18.077Z,83.81
2022-12-18T02:06:18.051Z,84.55
2022-12-18T02:07:18.063Z,84.55
2022-12-18T02:08:18.038Z,83.70
2022-12-18T02:09:18.033Z,84.66
2022-12-18T02:10:18.044Z,84.44
2022-12-18T02:11:18.019Z,84.44
2022-12-18T02:12:18.002Z,84.51
2022-12-18T02:13:18.102Z,84.12
2022-12-18T02:14:18.004Z,84.38
2022-12-18T02:15:17.996Z,84.69
2022-12-18T02:16:18.050Z,85.22
2022-12-18T02:17:18.012Z,84.66
2022-12-18T02:18:17.975Z,84.59
2022-12-18T02:19:17.971Z,84.44
2022-12-18T02:20:17.979Z,84.23
2022-12-18T02:21:17.954Z,84.44
2022-12-18T02:22:18.510Z,84.41
2022-12-18T02:23:17.936Z,84.61
2022-12-18T02:24:17.958Z,83.56
2022-12-18T02:25:17.959Z,84.23
2022-12-18T02:26:17.979Z,83.77
2022-12-18T02:27:17.919Z,83.94
2022-12-18T02:28:17.934Z,83.31
2022-12-18T02:29:18.002Z,82.95
2022-12-18T02:30:17.933Z,82.35
2022-12-18T02:31:17.968Z,82.25
2022-12-18T02:32:17.899Z,81.90
2022-12-18T02:33:17.891Z,81.40
2022-12-18T02:34:17.888Z,81.34
2022-12-18T02:35:17.891Z,81.79
2022-12-18T02:36:17.887Z,82.43
2022-12-18T02:37:17.876Z,83.10
2022-12-18T02:38:17.859Z,83.03
2022-12-18T02:39:17.854Z,82.89
2022-12-18T02:40:17.863Z,82.75
2022-12-18T02:41:17.867Z,82.86
2022-12-18T02:42:17.840Z,82.64
2022-12-18T02:43:17.849Z,82.75
2022-12-18T02:44:17.828Z,82.64
2022-12-18T02:45:17.912Z,82.60
2022-12-18T02:46:17.902Z,82.29
2022-12-18T02:47:17.807Z,82.01
2022-12-18T02:48:17.817Z,82.11
2022-12-18T02:49:17.794Z,81.90
2022-12-18T02:50:17.791Z,81.90
2022-12-18T02:51:17.808Z,81.90
2022-12-18T02:52:17.796Z,81.79
2022-12-18T02:53:17.780Z,81.90
2022-12-18T02:54:17.784Z,82.04
2022-12-18T02:55:17.773Z,82.01
2022-12-18T02:56:17.766Z,81.69
2022-12-18T02:57:17.794Z,81.48
2022-12-18T02:58:17.739Z,81.37
2022-12-18T02:59:17.745Z,80.94
2022-12-18T03:00:17.729Z,80.73
2022-12-18T03:01:17.934Z,80.35
2022-12-18T03:02:18.060Z,80.38
2022-12-18T03:03:17.804Z,81.30
2022-12-18T03:04:17.717Z,82.40
2022-12-18T03:05:17.723Z,83.47
2022-12-18T03:06:17.708Z,83.71
2022-12-18T03:07:17.720Z,83.67
2022-12-18T03:08:17.713Z,83.56
2022-12-18T03:09:17.691Z,82.78
2022-12-18T03:10:17.687Z,82.36
2022-12-18T03:11:17.692Z,81.93
2022-12-18T03:12:17.694Z,81.37
2022-12-18T03:13:17.661Z,81.16
2022-12-18T03:14:17.672Z,80.49
2022-12-18T03:15:18.140Z,79.96
2022-12-18T03:16:18.679Z,79.11
2022-12-18T03:17:17.745Z,78.47
2022-12-18T03:18:17.644Z,78.37
2022-12-18T03:19:17.939Z,77.84
2022-12-18T03:20:17.637Z,77.94
2022-12-18T03:21:17.615Z,78.05
2022-12-18T03:22:17.616Z,77.66
2022-12-18T03:23:17.627Z,77.87
2022-12-18T03:24:17.615Z,77.56
2022-12-18T03:25:17.613Z,78.44
2022-12-18T03:26:17.611Z,77.66
2022-12-18T03:27:17.590Z,78.08
2022-12-18T03:28:17.590Z,78.37
2022-12-18T03:29:17.591Z,77.94
2022-12-18T03:30:17.584Z,77.62
2022-12-18T03:31:17.638Z,77.34
2022-12-18T03:32:17.573Z,76.50
2022-12-18T03:33:17.673Z,77.23
2022-12-18T03:34:17.548Z,76.95
2022-12-18T03:35:17.566Z,76.88
2022-12-18T03:36:17.582Z,78.51
2022-12-18T03:37:17.541Z,77.87
2022-12-18T03:38:18.375Z,78.72
2022-12-18T03:39:17.529Z,78.22
2022-12-18T03:40:17.540Z,78.65
2022-12-18T03:41:17.534Z,79.11
2022-12-18T03:42:17.519Z,79.71
2022-12-18T03:43:17.522Z,79.64
2022-12-18T03:44:17.523Z,79.32
2022-12-18T03:45:17.503Z,79.60
2022-12-18T03:46:17.604Z,79.93
2022-12-18T03:47:17.505Z,79.39
2022-12-18T03:48:17.512Z,79.18
2022-12-18T03:49:22.963Z,78.61
2022-12-18T03:50:24.444Z,78.22
2022-12-18T03:51:18.562Z,78.12
2022-12-18T03:52:17.475Z,77.80
2022-12-18T03:53:17.495Z,77.69
2022-12-18T03:54:17.476Z,78.55
2022-12-18T03:55:17.462Z,78.22
2022-12-18T03:56:17.473Z,78.22
2022-12-18T03:57:17.459Z,78.75
2022-12-18T03:58:17.477Z,78.47
2022-12-18T03:59:17.463Z,78.47
2022-12-18T04:00:17.440Z,78.79
2022-12-18T04:01:17.569Z,79.11
2022-12-18T04:02:17.635Z,79.04
2022-12-18T04:03:17.501Z,79.68
2022-12-18T04:04:17.474Z,79.50
2022-12-18T04:05:17.438Z,78.97
2022-12-18T04:06:17.466Z,78.44
2022-12-18T04:07:17.503Z,78.54
2022-12-18T04:08:43.846Z,79.39
2022-12-18T04:09:17.404Z,79.36
2022-12-18T04:10:17.398Z,78.51
2022-12-18T04:11:17.398Z,78.44
2022-12-18T04:12:17.398Z,78.86
2022-12-18T04:13:17.394Z,78.54
2022-12-18T04:14:18.179Z,79.14
2022-12-18T04:15:18.391Z,78.51
2022-12-18T04:16:17.422Z,78.86
2022-12-18T04:17:17.379Z,78.33
2022-12-18T04:18:17.363Z,78.75
2022-12-18T04:19:17.378Z,79.14
2022-12-18T04:20:17.372Z,79.11
2022-12-18T04:21:17.350Z,78.69
2022-12-18T04:22:17.354Z,78.05
2022-12-18T04:23:17.437Z,78.33
2022-12-18T04:24:17.345Z,78.22
2022-12-18T04:25:17.325Z,77.59
2022-12-18T04:26:17.334Z,77.45
2022-12-18T04:27:17.339Z,76.81
2022-12-18T04:28:17.330Z,77.13
2022-12-18T04:29:17.318Z,77.09
2022-12-18T04:30:17.320Z,76.39
2022-12-18T04:31:17.348Z,76.14
2022-12-18T04:32:17.310Z,76.56
2022-12-18T04:33:17.320Z,75.96
2022-12-18T04:34:17.294Z,76.25
2022-12-18T04:35:17.303Z,76.39
2022-12-18T04:36:17.324Z,77.66
2022-12-18T04:37:17.300Z,78.61
2022-12-18T04:38:17.280Z,78.40
2022-12-18T04:39:17.381Z,78.30
2022-12-18T04:40:17.275Z,78.51
2022-12-18T04:41:17.259Z,78.72
2022-12-18T04:42:17.260Z,78.33
2022-12-18T04:43:17.373Z,78.97
2022-12-18T04:44:17.251Z,78.65
2022-12-18T04:45:17.268Z,78.72
2022-12-18T04:46:17.332Z,79.08
2022-12-18T04:47:17.244Z,78.22
2022-12-18T04:48:17.248Z,78.40
2022-12-18T04:49:17.227Z,78.83
2022-12-18T04:50:17.252Z,78.61
2022-12-18T04:51:18.989Z,77.69
2022-12-18T04:52:18.228Z,78.75
2022-12-18T04:53:17.222Z,77.87
2022-12-18T04:54:17.215Z,77.87
2022-12-18T04:55:17.304Z,77.45
2022-12-18T04:56:17.230Z,77.34
2022-12-18T04:57:17.226Z,77.45
2022-12-18T04:58:17.212Z,78.30
2022-12-18T04:59:17.190Z,78.44
2022-12-18T05:00:17.202Z,78.44
2022-12-18T05:01:17.308Z,78.30
2022-12-18T05:02:17.280Z,77.45
2022-12-18T05:03:17.242Z,77.76
2022-12-18T05:04:17.226Z,76.92
2022-12-18T05:05:17.177Z,77.16
2022-12-18T05:06:17.169Z,77.16
2022-12-18T05:07:17.178Z,77.27
2022-12-18T05:08:17.166Z,77.83
2022-12-18T05:09:17.165Z,77.83
2022-12-18T05:10:17.154Z,77.80
2022-12-18T05:11:17.236Z,77.27
2022-12-18T05:12:17.169Z,77.94
2022-12-18T05:13:18.010Z,77.20
2022-12-18T05:14:17.137Z,77.69
2022-12-18T05:15:17.150Z,76.84
2022-12-18T05:16:17.337Z,78.40
2022-12-18T05:17:17.153Z,77.23
2022-12-18T05:18:17.121Z,77.09
2022-12-18T05:19:17.116Z,76.70
2022-12-18T05:20:17.132Z,76.25
2022-12-18T05:21:17.117Z,75.71
2022-12-18T05:22:17.115Z,74.97
2022-12-18T05:23:17.116Z,74.79
2022-12-18T05:24:17.105Z,74.76
2022-12-18T05:25:17.095Z,75.00
2022-12-18T05:26:17.087Z,75.00
2022-12-18T05:27:17.178Z,74.82
2022-12-18T05:28:17.107Z,75.49
2022-12-18T05:29:17.131Z,76.14
2022-12-18T05:30:17.062Z,76.70
2022-12-18T05:31:17.142Z,76.95
2022-12-18T05:32:17.068Z,77.44
2022-12-18T05:33:17.087Z,77.55
2022-12-18T05:34:17.055Z,77.55
2022-12-18T05:35:17.068Z,77.44
2022-12-18T05:36:17.070Z,77.12
2022-12-18T05:37:17.028Z,76.91
2022-12-18T05:38:17.124Z,77.12
2022-12-18T05:39:17.128Z,77.83
2022-12-18T05:40:17.030Z,77.30
2022-12-18T05:41:17.027Z,77.30
2022-12-18T05:42:17.019Z,77.06
2022-12-18T05:43:21.177Z,77.48
2022-12-18T05:44:18.023Z,76.84
2022-12-18T05:45:17.023Z,76.53
2022-12-18T05:46:17.089Z,76.31
2022-12-18T05:47:17.003Z,76.73
2022-12-18T05:48:17.004Z,76.39
2022-12-18T05:49:17.108Z,76.42
2022-12-18T05:50:17.004Z,76.39
2022-12-18T05:51:16.988Z,76.39
2022-12-18T05:52:16.979Z,76.39
2022-12-18T05:53:16.971Z,76.28
2022-12-18T05:54:17.015Z,75.99
2022-12-18T05:55:16.983Z,76.98
2022-12-18T05:56:16.981Z,77.48
2022-12-18T05:57:16.966Z,77.12
2022-12-18T05:58:16.947Z,77.45
2022-12-18T05:59:17.062Z,76.81
2022-12-18T06:00:16.969Z,76.70
2022-12-18T06:01:16.998Z,76.49
2022-12-18T06:02:17.017Z,76.06
2022-12-18T06:03:17.061Z,76.14
2022-12-18T06:04:17.065Z,74.58
2022-12-18T06:05:16.931Z,74.76
2022-12-18T06:06:16.918Z,75.43
2022-12-18T06:07:16.923Z,76.59
2022-12-18T06:08:16.903Z,77.12
2022-12-18T06:09:16.935Z,77.62
2022-12-18T06:10:16.898Z,77.20
2022-12-18T06:11:16.901Z,77.06
2022-12-18T06:12:16.906Z,78.01
2022-12-18T06:13:16.903Z,77.12
2022-12-18T06:14:16.877Z,76.59
2022-12-18T06:15:17.976Z,76.31
2022-12-18T06:16:16.998Z,76.53
2022-12-18T06:17:16.880Z,76.28
2022-12-18T06:18:16.861Z,75.96
2022-12-18T06:19:16.868Z,76.06
2022-12-18T06:20:16.900Z,75.96
2022-12-18T06:21:16.840Z,75.85
2022-12-18T06:22:16.852Z,74.58
2022-12-18T06:23:16.856Z,74.93
2022-12-18T06:24:16.841Z,76.10
2022-12-18T06:25:16.855Z,76.20
2022-12-18T06:26:17.848Z,76.56
2022-12-18T06:27:16.826Z,76.45
2022-12-18T06:28:16.828Z,77.34
2022-12-18T06:29:16.844Z,78.08
2022-12-18T06:30:16.817Z,77.73
2022-12-18T06:31:17.006Z,78.79
2022-12-18T06:32:16.811Z,78.26
2022-12-18T06:33:16.799Z,77.97
2022-12-18T06:34:16.803Z,77.66
2022-12-18T06:35:16.811Z,78.01
2022-12-18T06:36:16.799Z,78.86
2022-12-18T06:37:17.350Z,78.83
2022-12-18T06:38:16.789Z,78.72
2022-12-18T06:39:16.783Z,77.97
2022-12-18T06:40:16.783Z,78.01
2022-12-18T06:41:16.799Z,79.08
2022-12-18T06:42:16.758Z,78.65
2022-12-18T06:43:17.792Z,78.86
2022-12-18T06:44:16.760Z,79.14
2022-12-18T06:45:16.769Z,78.83
2022-12-18T06:46:16.827Z,78.83
2022-12-18T06:47:16.873Z,78.83
2022-12-18T06:48:16.763Z,78.79
2022-12-18T06:49:16.753Z,79.22
2022-12-18T06:50:16.748Z,78.69
2022-12-18T06:51:16.724Z,78.15
2022-12-18T06:52:16.727Z,78.22
2022-12-18T06:53:16.745Z,78.12
2022-12-18T06:54:16.727Z,77.91
2022-12-18T06:55:16.723Z,77.83
2022-12-18T06:56:16.708Z,77.94
2022-12-18T06:57:16.700Z,77.94
2022-12-18T06:58:16.699Z,78.05
2022-12-18T06:59:16.707Z,77.62
2022-12-18T07:00:16.699Z,77.30
2022-12-18T07:01:16.830Z,78.15
2022-12-18T07:02:16.776Z,77.23
2022-12-18T07:03:16.777Z,77.01
2022-12-18T07:04:16.681Z,78.05
2022-12-18T07:05:16.678Z,76.91
2022-12-18T07:06:16.671Z,77.87
2022-12-18T07:07:16.656Z,77.87
2022-12-18T07:08:16.697Z,77.44
2022-12-18T07:09:16.652Z,77.66
2022-12-18T07:10:16.645Z,77.87
2022-12-18T07:11:16.671Z,77.87
2022-12-18T07:12:16.656Z,77.19
2022-12-18T07:13:16.646Z,77.51
2022-12-18T07:14:16.628Z,77.55
2022-12-18T07:15:16.631Z,77.23
2022-12-18T07:16:23.951Z,77.01
2022-12-18T07:17:18.615Z,77.12
2022-12-18T07:18:16.631Z,77.55
2022-12-18T07:19:16.702Z,77.62
2022-12-18T07:20:16.706Z,77.51
2022-12-18T07:21:16.613Z,77.16
2022-12-18T07:22:16.620Z,77.02
2022-12-18T07:23:17.477Z,77.34
2022-12-18T07:24:16.589Z,77.55
2022-12-18T07:25:16.612Z,77.41
2022-12-18T07:26:16.612Z,76.77
2022-12-18T07:27:16.600Z,76.20
2022-12-18T07:28:17.630Z,75.60
2022-12-18T07:29:17.556Z,75.89
2022-12-18T07:30:16.552Z,74.86
2022-12-18T07:31:16.655Z,74.86
2022-12-18T07:32:16.565Z,75.07
2022-12-18T07:33:16.549Z,75.28
2022-12-18T07:34:16.536Z,74.82
2022-12-18T07:35:19.378Z,74.40
2022-12-18T07:36:18.919Z,75.35
2022-12-18T07:37:16.533Z,75.14
2022-12-18T07:38:16.552Z,74.79
2022-12-18T07:39:16.516Z,75.21
2022-12-18T07:40:16.510Z,75.21
2022-12-18T07:41:16.515Z,75.21
2022-12-18T07:42:16.524Z,75.07
2022-12-18T07:43:16.505Z,75.07
2022-12-18T07:44:16.503Z,74.79
2022-12-18T07:45:16.487Z,74.37
2022-12-18T07:46:16.529Z,74.26
2022-12-18T07:47:16.487Z,74.22
2022-12-18T07:48:16.505Z,74.44
2022-12-18T07:49:16.470Z,74.47
2022-12-18T07:50:16.488Z,74.72
2022-12-18T07:51:16.561Z,74.82
2022-12-18T07:52:19.308Z,75.25
2022-12-18T07:53:17.446Z,75.11
2022-12-18T07:54:16.443Z,74.79
2022-12-18T07:55:16.457Z,74.93
2022-12-18T07:56:31.883Z,75.07
2022-12-18T07:57:48.442Z,75.74
2022-12-18T07:58:18.441Z,76.81
2022-12-18T07:59:16.480Z,77.44
2022-12-18T08:00:16.435Z,77.55
2022-12-18T08:01:16.504Z,77.02
2022-12-18T08:02:16.553Z,77.55
2022-12-18T08:03:16.480Z,77.76
2022-12-18T08:04:16.416Z,77.12
2022-12-18T08:05:16.405Z,77.44
2022-12-18T08:06:16.410Z,76.70
2022-12-18T08:07:16.484Z,77.23
2022-12-18T08:08:16.397Z,76.91
2022-12-18T08:09:16.395Z,77.12
2022-12-18T08:10:16.407Z,77.02
2022-12-18T08:11:16.386Z,77.02
2022-12-18T08:12:16.419Z,76.59
2022-12-18T08:13:16.423Z,76.67
2022-12-18T08:14:16.363Z,76.03
2022-12-18T08:15:16.361Z,75.85
2022-12-18T08:16:16.412Z,76.28
2022-12-18T08:17:16.386Z,76.06
2022-12-18T08:18:16.354Z,76.42
2022-12-18T08:19:16.341Z,76.56
2022-12-18T08:20:16.345Z,77.40
2022-12-18T08:21:16.370Z,78.05
2022-12-18T08:22:16.329Z,77.40
2022-12-18T08:23:16.450Z,77.58
2022-12-18T08:24:16.333Z,77.48
2022-12-18T08:25:16.324Z,77.80
2022-12-18T08:26:16.316Z,78.72
2022-12-18T08:27:31.742Z,78.40
2022-12-18T08:28:18.326Z,78.22
2022-12-18T08:29:21.436Z,78.08
2022-12-18T08:30:17.291Z,78.22
2022-12-18T08:31:16.340Z,78.65
2022-12-18T08:32:16.322Z,79.46
2022-12-18T08:33:16.286Z,79.57
2022-12-18T08:34:16.330Z,79.79
2022-12-18T08:35:18.700Z,79.32
2022-12-18T08:36:17.279Z,79.53
2022-12-18T08:37:16.272Z,79.53
2022-12-18T08:38:16.299Z,79.39
2022-12-18T08:39:16.367Z,78.97
2022-12-18T08:40:16.279Z,78.75
2022-12-18T08:41:16.268Z,78.75
2022-12-18T08:42:16.263Z,78.44
2022-12-18T08:43:16.243Z,78.33
2022-12-18T08:44:16.276Z,78.22
2022-12-18T08:45:16.256Z,78.54
2022-12-18T08:46:16.318Z,78.22
2022-12-18T08:47:16.250Z,78.33
2022-12-18T08:48:20.681Z,78.61
2022-12-18T08:49:18.231Z,78.51
2022-12-18T08:50:16.216Z,78.72
2022-12-18T08:51:16.213Z,78.83
2022-12-18T08:52:16.227Z,78.61
2022-12-18T08:53:16.208Z,78.69
2022-12-18T08:54:16.212Z,78.58
2022-12-18T08:55:16.286Z,78.47
2022-12-18T08:56:16.211Z,78.16
2022-12-18T08:57:16.183Z,77.80
2022-12-18T08:58:16.192Z,77.84
2022-12-18T08:59:19.739Z,78.44
2022-12-18T09:00:17.198Z,78.61
2022-12-18T09:01:16.324Z,78.08
2022-12-18T09:02:16.375Z,78.37
2022-12-18T09:03:16.247Z,77.84
2022-12-18T09:04:16.159Z,77.45
2022-12-18T09:05:16.162Z,77.87
2022-12-18T09:06:16.174Z,76.39
2022-12-18T09:07:16.191Z,76.50
2022-12-18T09:08:16.168Z,75.86
2022-12-18T09:09:16.159Z,76.25
2022-12-18T09:10:16.135Z,75.54
2022-12-18T09:11:16.242Z,75.51
2022-12-18T09:12:16.137Z,75.05
2022-12-18T09:13:16.158Z,74.52
2022-12-18T09:14:16.173Z,74.10
2022-12-18T09:15:16.115Z,74.31
2022-12-18T09:16:16.111Z,73.78
2022-12-18T09:17:16.162Z,73.99
2022-12-18T09:18:16.095Z,74.10
2022-12-18T09:19:16.098Z,73.43
2022-12-18T09:20:16.098Z,74.07
2022-12-18T09:21:16.100Z,73.93
2022-12-18T09:22:16.082Z,73.29
2022-12-18T09:23:16.080Z,73.32
2022-12-18T09:24:16.113Z,73.22
2022-12-18T09:25:16.063Z,74.03
2022-12-18T09:26:16.074Z,73.39
2022-12-18T09:27:16.157Z,73.50
2022-12-18T09:28:16.065Z,73.50
2022-12-18T09:29:16.378Z,74.10
2022-12-18T09:30:16.033Z,75.82
2022-12-18T09:31:16.145Z,75.58
2022-12-18T09:32:21.980Z,75.76
2022-12-18T09:33:18.029Z,75.44
2022-12-18T09:34:16.017Z,75.62
2022-12-18T09:35:16.021Z,74.52
2022-12-18T09:36:16.031Z,73.79
2022-12-18T09:37:16.012Z,74.07
2022-12-18T09:38:16.002Z,73.33
2022-12-18T09:39:15.966Z,72.45
2022-12-18T09:40:15.967Z,72.20
2022-12-18T09:41:15.970Z,73.68
2022-12-18T09:42:15.960Z,73.86
2022-12-18T09:43:16.056Z,74.04
2022-12-18T09:44:15.969Z,72.88
2022-12-18T09:45:16.033Z,72.88
2022-12-18T09:46:15.993Z,72.88
2022-12-18T09:47:15.926Z,72.59
2022-12-18T09:48:15.949Z,73.01
2022-12-18T09:49:15.914Z,73.15
2022-12-18T09:50:17.537Z,73.61
2022-12-18T09:51:16.922Z,74.46
2022-12-18T09:52:15.907Z,74.77
2022-12-18T09:53:15.914Z,75.48
2022-12-18T09:54:15.882Z,75.55
2022-12-18T09:55:15.866Z,74.60
2022-12-18T09:56:15.859Z,74.67
2022-12-18T09:57:15.864Z,73.22
2022-12-18T09:58:15.867Z,74.66
2022-12-18T09:59:15.973Z,74.56
2022-12-18T10:00:15.843Z,74.42
2022-12-18T10:01:15.909Z,74.42
2022-12-18T10:02:15.926Z,75.90
2022-12-18T10:03:15.905Z,75.97
2022-12-18T10:04:15.861Z,76.25
2022-12-18T10:05:15.816Z,75.48
2022-12-18T10:06:15.813Z,74.43
2022-12-18T10:07:15.795Z,74.71
2022-12-18T10:08:15.788Z,73.94
2022-12-18T10:09:41.775Z,73.44
2022-12-18T10:10:15.799Z,73.76
2022-12-18T10:11:15.776Z,73.76
2022-12-18T10:12:15.784Z,74.36
2022-12-18T10:13:15.767Z,74.26
2022-12-18T10:14:15.788Z,72.85
2022-12-18T10:15:15.876Z,72.25
2022-12-18T10:16:15.801Z,71.41
2022-12-18T10:17:15.753Z,71.73
2022-12-18T10:18:20.278Z,70.47
2022-12-18T10:19:17.771Z,71.23
2022-12-18T10:20:15.738Z,72.18
2022-12-18T10:21:15.731Z,72.53
2022-12-18T10:22:15.723Z,73.03
2022-12-18T10:23:15.743Z,72.29
2022-12-18T10:24:15.723Z,72.85
2022-12-18T10:25:15.708Z,73.27
2022-12-18T10:26:15.741Z,73.06
2022-12-18T10:27:16.699Z,73.97
2022-12-18T10:28:15.676Z,74.50
2022-12-18T10:29:15.674Z,74.26
2022-12-18T10:30:15.698Z,74.46
2022-12-18T10:31:15.878Z,75.66
2022-12-18T10:32:15.702Z,75.87
2022-12-18T10:33:15.662Z,76.43
2022-12-18T10:34:15.710Z,77.38
2022-12-18T10:35:15.694Z,76.96
2022-12-18T10:36:15.701Z,77.17
2022-12-18T10:37:15.640Z,77.45
2022-12-18T10:38:15.632Z,76.46
2022-12-18T10:39:15.625Z,75.73
2022-12-18T10:40:21.935Z,75.62
2022-12-18T10:41:17.660Z,76.15
2022-12-18T10:42:15.635Z,76.04
2022-12-18T10:43:15.610Z,76.68
2022-12-18T10:44:15.590Z,76.46
2022-12-18T10:45:16.644Z,76.43
2022-12-18T10:46:15.665Z,76.43
2022-12-18T10:47:15.671Z,76.57
2022-12-18T10:48:15.565Z,76.36
2022-12-18T10:49:15.553Z,76.29
2022-12-18T10:50:15.538Z,76.36
2022-12-18T10:51:15.563Z,76.05
2022-12-18T10:52:15.586Z,76.36
2022-12-18T10:53:15.551Z,76.57
2022-12-18T10:54:15.569Z,76.05
2022-12-18T10:55:15.571Z,75.59
2022-12-18T10:56:15.510Z,75.59
2022-12-18T10:57:15.517Z,75.84
2022-12-18T10:58:15.537Z,75.52
2022-12-18T10:59:15.504Z,75.77
2022-12-18T11:00:15.489Z,74.51
2022-12-18T11:01:15.734Z,74.19
2022-12-18T11:02:16.589Z,74.51
2022-12-18T11:03:15.704Z,74.05
2022-12-18T11:04:15.475Z,74.12
2022-12-18T11:05:15.484Z,74.19
2022-12-18T11:06:15.479Z,74.29
2022-12-18T11:07:15.456Z,74.05
2022-12-18T11:08:15.477Z,73.42
2022-12-18T11:09:15.675Z,73.10
2022-12-18T11:10:16.555Z,73.49
2022-12-18T11:11:15.428Z,72.44
2022-12-18T11:12:15.484Z,72.27
2022-12-18T11:13:15.491Z,71.81
2022-12-18T11:14:15.422Z,70.76
2022-12-18T11:15:15.448Z,70.21
2022-12-18T11:16:15.451Z,70.07
2022-12-18T11:17:30.745Z,69.20
2022-12-18T11:18:17.498Z,68.90
2022-12-18T11:19:15.412Z,67.54
2022-12-18T11:20:15.402Z,66.28
2022-12-18T11:21:15.393Z,66.39
2022-12-18T11:22:15.398Z,65.55
2022-12-18T11:23:15.414Z,66.17
2022-12-18T11:24:15.426Z,65.52
2022-12-18T11:25:32.517Z,66.49
2022-12-18T11:26:17.346Z,65.97
2022-12-18T11:27:15.404Z,65.97
2022-12-18T11:28:15.330Z,65.89
2022-12-18T11:29:15.361Z,67.39
2022-12-18T11:30:15.372Z,67.49
2022-12-18T11:31:15.437Z,67.91
2022-12-18T11:32:15.314Z,68.65
2022-12-18T11:33:15.287Z,69.48
2022-12-18T11:34:30.911Z,69.17
2022-12-18T11:35:17.286Z,69.31
2022-12-18T11:36:15.304Z,70.21
2022-12-18T11:37:15.286Z,71.50
2022-12-18T11:38:15.264Z,71.71
2022-12-18T11:39:15.328Z,72.66
2022-12-18T11:40:15.291Z,72.97
2022-12-18T11:41:15.285Z,73.00
2022-12-18T11:42:15.258Z,72.66
2022-12-18T11:43:15.265Z,72.58
2022-12-18T11:44:15.245Z,73.01
2022-12-18T11:45:15.245Z,71.58
2022-12-18T11:46:19.508Z,71.83
2022-12-18T11:47:16.237Z,71.96
2022-12-18T11:48:15.223Z,71.16
2022-12-18T11:49:15.208Z,70.22
2022-12-18T11:50:15.410Z,70.43
2022-12-18T11:51:15.236Z,70.22
2022-12-18T11:52:15.219Z,70.56
2022-12-18T11:53:15.185Z,70.91
2022-12-18T11:54:15.184Z,71.68
2022-12-18T11:55:15.174Z,71.99
2022-12-18T11:56:15.171Z,72.41
2022-12-18T11:57:15.179Z,72.94
2022-12-18T11:58:15.162Z,72.10
2022-12-18T11:59:15.152Z,72.38
2022-12-18T12:00:15.215Z,71.93
2022-12-18T12:01:15.223Z,71.83
2022-12-18T12:02:15.381Z,71.12
2022-12-18T12:03:15.223Z,71.54
2022-12-18T12:04:15.149Z,71.54
2022-12-18T12:05:15.123Z,70.70
2022-12-18T12:06:15.223Z,71.83
2022-12-18T12:07:15.932Z,70.75
2022-12-18T12:08:15.108Z,70.11
2022-12-18T12:09:15.090Z,69.87
2022-12-18T12:10:15.150Z,70.01
2022-12-18T12:11:15.068Z,70.22
2022-12-18T12:12:15.080Z,70.28
2022-12-18T12:13:15.086Z,70.88
2022-12-18T12:14:15.068Z,71.26
2022-12-18T12:15:15.053Z,70.43
2022-12-18T12:16:15.095Z,70.39
2022-12-18T12:17:15.054Z,70.64
2022-12-18T12:18:15.064Z,70.36
2022-12-18T12:19:15.057Z,70.88
2022-12-18T12:20:15.055Z,70.56
2022-12-18T12:21:15.059Z,70.81
2022-12-18T12:22:15.114Z,71.26
2022-12-18T12:23:15.039Z,72.10
2022-12-18T12:24:15.006Z,72.55
2022-12-18T12:25:15.113Z,73.18
2022-12-18T12:26:14.992Z,73.43
2022-12-18T12:27:15.041Z,72.45
2022-12-18T12:28:15.019Z,71.79
2022-12-18T12:29:20.857Z,71.37
2022-12-18T12:30:16.977Z,71.55
2022-12-18T12:31:14.993Z,71.23
2022-12-18T12:32:14.983Z,71.41
2022-12-18T12:33:14.971Z,72.34
2022-12-18T12:34:14.976Z,71.58
2022-12-18T12:35:14.933Z,71.62
2022-12-18T12:36:14.925Z,71.41
2022-12-18T12:37:14.925Z,71.06
2022-12-18T12:38:15.006Z,71.28
2022-12-18T12:39:14.931Z,70.09
2022-12-18T12:40:48.347Z,69.78
2022-12-18T12:41:16.915Z,69.81
2022-12-18T12:42:14.915Z,69.95
2022-12-18T12:43:14.898Z,70.81
2022-12-18T12:44:14.934Z,72.11
2022-12-18T12:45:15.454Z,73.05
2022-12-18T12:46:14.905Z,73.92
2022-12-18T12:47:14.865Z,73.57
2022-12-18T12:48:14.874Z,73.96
2022-12-18T12:49:14.859Z,73.30
2022-12-18T12:50:14.875Z,72.95
2022-12-18T12:51:14.881Z,72.42
2022-12-18T12:52:14.867Z,71.66
2022-12-18T12:53:14.839Z,71.87